sensor_id;sensor_type;location;lat;lon;timestamp;P1;durP1;ratioP1;P2;durP2;ratioP2
55346;SDS011;41218;55.700;38.270;2023-01-31T00:04:55;9.00;;;3.20;;
55346;SDS011;41218;55.700;38.270;2023-01-31T00:09:55;7.93;;;3.20;;
55346;SDS011;41218;55.700;38.270;2023-01-31T00:14:56;8.83;;;3.30;;
55346;SDS011;41218;55.700;38.270;2023-01-31T00:19:56;8.27;;;3.70;;
55346;SDS011;41218;55.700;38.270;2023-01-31T00:24:57;7.77;;;3.17;;
55346;SDS011;41218;55.700;38.270;2023-01-31T00:30:09;9.88;;;3.60;;
55346;SDS011;41218;55.700;38.270;2023-01-31T00:35:10;8.25;;;3.65;;
55346;SDS011;41218;55.700;38.270;2023-01-31T00:40:11;7.83;;;3.07;;
55346;SDS011;41218;55.700;38.270;2023-01-31T00:45:26;7.38;;;3.38;;
55346;SDS011;41218;55.700;38.270;2023-01-31T00:50:27;8.03;;;3.63;;
55346;SDS011;41218;55.700;38.270;2023-01-31T00:55:27;9.23;;;3.47;;
55346;SDS011;41218;55.700;38.270;2023-01-31T01:00:28;9.23;;;3.47;;
55346;SDS011;41218;55.700;38.270;2023-01-31T01:05:28;7.60;;;3.13;;
55346;SDS011;41218;55.700;38.270;2023-01-31T01:10:29;8.60;;;3.40;;
55346;SDS011;41218;55.700;38.270;2023-01-31T01:15:30;6.45;;;2.78;;
55346;SDS011;41218;55.700;38.270;2023-01-31T01:20:31;12.55;;;3.90;;
55346;SDS011;41218;55.700;38.270;2023-01-31T01:25:43;8.25;;;3.33;;
55346;SDS011;41218;55.700;38.270;2023-01-31T01:30:44;9.40;;;3.63;;
55346;SDS011;41218;55.700;38.270;2023-01-31T01:35:44;8.97;;;4.03;;
55346;SDS011;41218;55.700;38.270;2023-01-31T01:40:45;5.33;;;3.10;;
55346;SDS011;41218;55.700;38.270;2023-01-31T01:45:45;8.90;;;3.43;;
55346;SDS011;41218;55.700;38.270;2023-01-31T01:50:47;8.40;;;3.53;;
55346;SDS011;41218;55.700;38.270;2023-01-31T01:55:57;7.95;;;3.28;;
55346;SDS011;41218;55.700;38.270;2023-01-31T02:01:03;7.72;;;2.45;;
55346;SDS011;41218;55.700;38.270;2023-01-31T02:06:05;8.77;;;3.47;;
55346;SDS011;41218;55.700;38.270;2023-01-31T02:16:16;8.27;;;3.47;;
55346;SDS011;41218;55.700;38.270;2023-01-31T02:26:42;11.38;;;3.78;;
55346;SDS011;41218;55.700;38.270;2023-01-31T02:32:14;7.32;;;3.28;;
55346;SDS011;41218;55.700;38.270;2023-01-31T02:43:01;8.70;;;3.63;;
55346;SDS011;41218;55.700;38.270;2023-01-31T02:48:39;11.48;;;4.30;;
55346;SDS011;41218;55.700;38.270;2023-01-31T02:54:33;8.83;;;3.33;;
55346;SDS011;41218;55.700;38.270;2023-01-31T02:59:56;9.50;;;3.63;;
55346;SDS011;41218;55.700;38.270;2023-01-31T03:04:57;6.82;;;3.67;;
55346;SDS011;41218;55.700;38.270;2023-01-31T03:10:59;9.20;;;3.60;;
55346;SDS011;41218;55.700;38.270;2023-01-31T03:21:06;10.63;;;3.97;;
55346;SDS011;41218;55.700;38.270;2023-01-31T03:26:12;12.43;;;4.43;;
55346;SDS011;41218;55.700;38.270;2023-01-31T03:31:15;9.05;;;4.03;;
55346;SDS011;41218;55.700;38.270;2023-01-31T03:36:30;10.02;;;3.92;;
55346;SDS011;41218;55.700;38.270;2023-01-31T03:41:49;8.43;;;4.25;;
55346;SDS011;41218;55.700;38.270;2023-01-31T03:46:54;9.40;;;4.50;;
55346;SDS011;41218;55.700;38.270;2023-01-31T03:52:01;13.02;;;4.43;;
55346;SDS011;41218;55.700;38.270;2023-01-31T03:57:10;12.52;;;5.00;;
55346;SDS011;41218;55.700;38.270;2023-01-31T04:02:16;13.20;;;4.68;;
55346;SDS011;41218;55.700;38.270;2023-01-31T04:07:18;9.73;;;4.20;;
55346;SDS011;41218;55.700;38.270;2023-01-31T04:12:18;12.73;;;4.33;;
55346;SDS011;41218;55.700;38.270;2023-01-31T04:17:19;12.23;;;4.20;;
55346;SDS011;41218;55.700;38.270;2023-01-31T04:22:19;9.70;;;4.13;;
55346;SDS011;41218;55.700;38.270;2023-01-31T04:27:20;7.17;;;3.57;;
55346;SDS011;41218;55.700;38.270;2023-01-31T04:32:20;11.23;;;4.53;;
55346;SDS011;41218;55.700;38.270;2023-01-31T04:37:21;8.70;;;3.63;;
55346;SDS011;41218;55.700;38.270;2023-01-31T04:42:21;8.70;;;4.07;;
55346;SDS011;41218;55.700;38.270;2023-01-31T04:47:22;11.40;;;4.13;;
55346;SDS011;41218;55.700;38.270;2023-01-31T04:52:22;9.90;;;3.93;;
55346;SDS011;41218;55.700;38.270;2023-01-31T04:57:23;9.98;;;4.57;;
55346;SDS011;41218;55.700;38.270;2023-01-31T05:02:24;9.40;;;4.30;;
55346;SDS011;41218;55.700;38.270;2023-01-31T05:07:25;9.00;;;3.93;;
55346;SDS011;41218;55.700;38.270;2023-01-31T05:12:26;9.37;;;4.10;;
55346;SDS011;41218;55.700;38.270;2023-01-31T05:22:28;11.27;;;4.40;;
55346;SDS011;41218;55.700;38.270;2023-01-31T05:27:29;11.63;;;4.67;;
55346;SDS011;41218;55.700;38.270;2023-01-31T05:32:29;8.53;;;4.70;;
55346;SDS011;41218;55.700;38.270;2023-01-31T05:37:30;8.80;;;3.60;;
55346;SDS011;41218;55.700;38.270;2023-01-31T05:42:30;11.60;;;4.57;;
55346;SDS011;41218;55.700;38.270;2023-01-31T05:47:31;12.43;;;4.70;;
55346;SDS011;41218;55.700;38.270;2023-01-31T05:52:31;8.83;;;4.30;;
55346;SDS011;41218;55.700;38.270;2023-01-31T05:57:32;13.07;;;4.90;;
55346;SDS011;41218;55.700;38.270;2023-01-31T06:02:32;10.17;;;4.33;;
55346;SDS011;41218;55.700;38.270;2023-01-31T06:07:33;14.10;;;4.40;;
55346;SDS011;41218;55.700;38.270;2023-01-31T06:12:34;8.60;;;4.00;;
55346;SDS011;41218;55.700;38.270;2023-01-31T06:17:34;10.20;;;4.43;;
55346;SDS011;41218;55.700;38.270;2023-01-31T06:22:35;10.53;;;4.27;;
55346;SDS011;41218;55.700;38.270;2023-01-31T06:27:36;9.33;;;4.03;;
55346;SDS011;41218;55.700;38.270;2023-01-31T06:32:36;7.20;;;3.70;;
55346;SDS011;41218;55.700;38.270;2023-01-31T06:37:37;11.50;;;4.13;;
55346;SDS011;41218;55.700;38.270;2023-01-31T06:42:37;12.20;;;4.50;;
55346;SDS011;41218;55.700;38.270;2023-01-31T06:47:38;12.77;;;3.57;;
55346;SDS011;41218;55.700;38.270;2023-01-31T06:52:38;11.07;;;4.43;;
55346;SDS011;41218;55.700;38.270;2023-01-31T06:57:46;10.27;;;4.35;;
55346;SDS011;41218;55.700;38.270;2023-01-31T07:02:48;10.48;;;3.72;;
55346;SDS011;41218;55.700;38.270;2023-01-31T07:07:49;10.90;;;3.95;;
55346;SDS011;41218;55.700;38.270;2023-01-31T07:12:49;9.37;;;3.93;;
55346;SDS011;41218;55.700;38.270;2023-01-31T07:17:50;12.10;;;5.00;;
55346;SDS011;41218;55.700;38.270;2023-01-31T07:22:57;8.50;;;4.25;;
55346;SDS011;41218;55.700;38.270;2023-01-31T07:27:58;11.07;;;3.97;;
55346;SDS011;41218;55.700;38.270;2023-01-31T07:32:59;8.30;;;3.08;;
55346;SDS011;41218;55.700;38.270;2023-01-31T07:38:00;7.55;;;3.60;;
55346;SDS011;41218;55.700;38.270;2023-01-31T07:43:00;6.03;;;2.40;;
55346;SDS011;41218;55.700;38.270;2023-01-31T07:48:01;10.83;;;4.57;;
55346;SDS011;41218;55.700;38.270;2023-01-31T07:53:01;11.50;;;4.60;;
55346;SDS011;41218;55.700;38.270;2023-01-31T07:58:02;8.90;;;4.30;;
55346;SDS011;41218;55.700;38.270;2023-01-31T08:03:03;8.70;;;3.47;;
55346;SDS011;41218;55.700;38.270;2023-01-31T08:08:22;10.75;;;4.35;;
55346;SDS011;41218;55.700;38.270;2023-01-31T08:13:22;10.47;;;4.53;;
55346;SDS011;41218;55.700;38.270;2023-01-31T08:18:25;10.38;;;4.53;;
55346;SDS011;41218;55.700;38.270;2023-01-31T08:23:26;11.30;;;4.67;;
55346;SDS011;41218;55.700;38.270;2023-01-31T08:28:27;10.68;;;4.38;;
55346;SDS011;41218;55.700;38.270;2023-01-31T08:38:29;9.23;;;4.20;;
55346;SDS011;41218;55.700;38.270;2023-01-31T08:43:29;11.03;;;3.57;;
55346;SDS011;41218;55.700;38.270;2023-01-31T08:48:32;11.18;;;5.03;;
55346;SDS011;41218;55.700;38.270;2023-01-31T08:53:33;14.65;;;5.15;;
55346;SDS011;41218;55.700;38.270;2023-01-31T08:58:36;12.02;;;4.70;;
55346;SDS011;41218;55.700;38.270;2023-01-31T09:03:38;15.57;;;5.43;;
55346;SDS011;41218;55.700;38.270;2023-01-31T09:08:58;12.02;;;4.82;;
55346;SDS011;41218;55.700;38.270;2023-01-31T09:13:58;12.63;;;5.10;;
55346;SDS011;41218;55.700;38.270;2023-01-31T09:18:59;11.40;;;5.07;;
55346;SDS011;41218;55.700;38.270;2023-01-31T09:23:59;13.23;;;5.33;;
55346;SDS011;41218;55.700;38.270;2023-01-31T09:29:03;11.05;;;4.15;;
55346;SDS011;41218;55.700;38.270;2023-01-31T09:34:03;11.97;;;4.90;;
55346;SDS011;41218;55.700;38.270;2023-01-31T09:39:04;12.80;;;5.43;;
55346;SDS011;41218;55.700;38.270;2023-01-31T09:49:15;12.27;;;5.65;;
55346;SDS011;41218;55.700;38.270;2023-01-31T09:54:22;11.15;;;5.07;;
55346;SDS011;41218;55.700;38.270;2023-01-31T10:10:36;11.98;;;5.10;;
55346;SDS011;41218;55.700;38.270;2023-01-31T10:26:05;14.00;;;5.82;;
55346;SDS011;41218;55.700;38.270;2023-01-31T10:47:01;12.57;;;5.07;;
55346;SDS011;41218;55.700;38.270;2023-01-31T10:57:12;12.30;;;5.63;;
55346;SDS011;41218;55.700;38.270;2023-01-31T11:02:15;10.23;;;4.90;;
55346;SDS011;41218;55.700;38.270;2023-01-31T11:07:20;14.13;;;4.85;;
55346;SDS011;41218;55.700;38.270;2023-01-31T11:12:21;12.38;;;5.43;;
55346;SDS011;41218;55.700;38.270;2023-01-31T11:17:39;12.90;;;5.88;;
55346;SDS011;41218;55.700;38.270;2023-01-31T11:22:42;11.88;;;5.20;;
55346;SDS011;41218;55.700;38.270;2023-01-31T11:27:45;10.88;;;5.07;;
55346;SDS011;41218;55.700;38.270;2023-01-31T11:32:47;14.75;;;5.68;;
55346;SDS011;41218;55.700;38.270;2023-01-31T11:37:59;14.52;;;5.22;;
55346;SDS011;41218;55.700;38.270;2023-01-31T11:48:23;12.80;;;5.53;;
55346;SDS011;41218;55.700;38.270;2023-01-31T11:53:46;12.63;;;4.95;;
55346;SDS011;41218;55.700;38.270;2023-01-31T11:58:53;13.43;;;5.78;;
55346;SDS011;41218;55.700;38.270;2023-01-31T12:03:57;15.13;;;5.70;;
55346;SDS011;41218;55.700;38.270;2023-01-31T12:09:01;14.48;;;6.00;;
55346;SDS011;41218;55.700;38.270;2023-01-31T12:14:18;15.68;;;5.70;;
55346;SDS011;41218;55.700;38.270;2023-01-31T12:19:22;14.67;;;5.93;;
55346;SDS011;41218;55.700;38.270;2023-01-31T12:24:46;14.13;;;5.03;;
55346;SDS011;41218;55.700;38.270;2023-01-31T12:40:47;13.30;;;5.13;;
55346;SDS011;41218;55.700;38.270;2023-01-31T13:07:12;16.40;;;6.03;;
55346;SDS011;41218;55.700;38.270;2023-01-31T13:12:21;15.85;;;5.78;;
55346;SDS011;41218;55.700;38.270;2023-01-31T13:17:27;18.58;;;6.43;;
55346;SDS011;41218;55.700;38.270;2023-01-31T13:22:32;19.08;;;6.47;;
55346;SDS011;41218;55.700;38.270;2023-01-31T13:27:41;12.05;;;5.55;;
55346;SDS011;41218;55.700;38.270;2023-01-31T13:32:47;13.80;;;5.40;;
55346;SDS011;41218;55.700;38.270;2023-01-31T13:37:50;14.48;;;5.22;;
55346;SDS011;41218;55.700;38.270;2023-01-31T13:43:07;13.00;;;4.78;;
55346;SDS011;41218;55.700;38.270;2023-01-31T13:53:46;14.00;;;5.80;;
55346;SDS011;41218;55.700;38.270;2023-01-31T13:58:53;12.95;;;5.53;;
55346;SDS011;41218;55.700;38.270;2023-01-31T14:50:43;13.52;;;5.55;;
55346;SDS011;41218;55.700;38.270;2023-01-31T15:01:34;13.80;;;5.78;;
55346;SDS011;41218;55.700;38.270;2023-01-31T15:06:37;10.85;;;4.72;;
55346;SDS011;41218;55.700;38.270;2023-01-31T15:11:52;13.52;;;5.13;;
55346;SDS011;41218;55.700;38.270;2023-01-31T15:22:05;13.60;;;5.38;;
55346;SDS011;41218;55.700;38.270;2023-01-31T15:27:39;12.88;;;5.40;;
55346;SDS011;41218;55.700;38.270;2023-01-31T15:37:57;14.60;;;5.90;;
55346;SDS011;41218;55.700;38.270;2023-01-31T15:43:29;13.15;;;5.60;;
55346;SDS011;41218;55.700;38.270;2023-01-31T15:48:30;15.05;;;6.25;;
55346;SDS011;41218;55.700;38.270;2023-01-31T15:53:30;15.10;;;5.90;;
55346;SDS011;41218;55.700;38.270;2023-01-31T15:58:31;18.10;;;6.10;;
55346;SDS011;41218;55.700;38.270;2023-01-31T16:03:38;16.67;;;6.88;;
55346;SDS011;41218;55.700;38.270;2023-01-31T16:08:41;11.95;;;5.20;;
55346;SDS011;41218;55.700;38.270;2023-01-31T16:13:41;17.07;;;6.20;;
55346;SDS011;41218;55.700;38.270;2023-01-31T16:18:44;14.60;;;6.35;;
55346;SDS011;41218;55.700;38.270;2023-01-31T16:23:55;18.45;;;6.22;;
55346;SDS011;41218;55.700;38.270;2023-01-31T16:29:05;17.00;;;5.57;;
55346;SDS011;41218;55.700;38.270;2023-01-31T16:34:25;16.00;;;6.35;;
55346;SDS011;41218;55.700;38.270;2023-01-31T16:44:33;15.65;;;6.22;;
55346;SDS011;41218;55.700;38.270;2023-01-31T16:49:37;15.25;;;6.50;;
55346;SDS011;41218;55.700;38.270;2023-01-31T16:54:51;17.93;;;6.67;;
55346;SDS011;41218;55.700;38.270;2023-01-31T16:59:53;17.73;;;6.20;;
55346;SDS011;41218;55.700;38.270;2023-01-31T17:04:54;13.83;;;5.80;;
55346;SDS011;41218;55.700;38.270;2023-01-31T17:10:05;16.38;;;6.35;;
55346;SDS011;41218;55.700;38.270;2023-01-31T17:15:11;19.08;;;6.80;;
55346;SDS011;41218;55.700;38.270;2023-01-31T17:20:17;12.55;;;4.68;;
55346;SDS011;41218;55.700;38.270;2023-01-31T17:25:20;14.52;;;5.93;;
55346;SDS011;41218;55.700;38.270;2023-01-31T17:30:23;17.77;;;6.82;;
55346;SDS011;41218;55.700;38.270;2023-01-31T17:35:37;16.73;;;6.68;;
55346;SDS011;41218;55.700;38.270;2023-01-31T17:40:39;16.98;;;6.97;;
55346;SDS011;41218;55.700;38.270;2023-01-31T17:45:41;14.30;;;6.03;;
55346;SDS011;41218;55.700;38.270;2023-01-31T17:50:41;17.40;;;7.10;;
55346;SDS011;41218;55.700;38.270;2023-01-31T17:55:43;16.95;;;6.03;;
55346;SDS011;41218;55.700;38.270;2023-01-31T18:00:44;17.70;;;6.60;;
55346;SDS011;41218;55.700;38.270;2023-01-31T18:05:46;18.05;;;7.25;;
55346;SDS011;41218;55.700;38.270;2023-01-31T18:10:46;19.85;;;7.32;;
55346;SDS011;41218;55.700;38.270;2023-01-31T18:15:47;18.00;;;6.27;;
55346;SDS011;41218;55.700;38.270;2023-01-31T18:20:48;19.50;;;7.50;;
55346;SDS011;41218;55.700;38.270;2023-01-31T18:25:48;13.80;;;5.67;;
55346;SDS011;41218;55.700;38.270;2023-01-31T18:30:49;17.80;;;5.90;;
55346;SDS011;41218;55.700;38.270;2023-01-31T18:35:59;15.95;;;5.55;;
55346;SDS011;41218;55.700;38.270;2023-01-31T18:41:03;15.13;;;6.10;;
55346;SDS011;41218;55.700;38.270;2023-01-31T18:46:05;17.05;;;6.63;;
55346;SDS011;41218;55.700;38.270;2023-01-31T18:51:07;20.02;;;6.40;;
55346;SDS011;41218;55.700;38.270;2023-01-31T18:56:10;16.88;;;6.47;;
55346;SDS011;41218;55.700;38.270;2023-01-31T19:01:20;22.08;;;7.38;;
55346;SDS011;41218;55.700;38.270;2023-01-31T19:06:23;18.80;;;6.85;;
55346;SDS011;41218;55.700;38.270;2023-01-31T19:11:28;16.75;;;6.85;;
55346;SDS011;41218;55.700;38.270;2023-01-31T19:16:29;20.63;;;6.75;;
55346;SDS011;41218;55.700;38.270;2023-01-31T19:21:30;20.93;;;7.07;;
55346;SDS011;41218;55.700;38.270;2023-01-31T19:26:33;20.02;;;7.43;;
55346;SDS011;41218;55.700;38.270;2023-01-31T19:31:33;16.10;;;6.70;;
55346;SDS011;41218;55.700;38.270;2023-01-31T19:36:38;19.17;;;7.10;;
55346;SDS011;41218;55.700;38.270;2023-01-31T19:41:40;18.95;;;7.82;;
55346;SDS011;41218;55.700;38.270;2023-01-31T19:46:41;20.83;;;7.47;;
55346;SDS011;41218;55.700;38.270;2023-01-31T19:56:43;16.83;;;6.97;;
55346;SDS011;41218;55.700;38.270;2023-01-31T20:01:44;18.90;;;7.17;;
55346;SDS011;41218;55.700;38.270;2023-01-31T20:06:44;20.27;;;6.57;;
55346;SDS011;41218;55.700;38.270;2023-01-31T20:11:45;16.63;;;5.37;;
55346;SDS011;41218;55.700;38.270;2023-01-31T20:16:46;24.90;;;7.77;;
55346;SDS011;41218;55.700;38.270;2023-01-31T20:21:47;18.93;;;6.87;;
55346;SDS011;41218;55.700;38.270;2023-01-31T20:26:48;16.27;;;6.40;;
55346;SDS011;41218;55.700;38.270;2023-01-31T20:31:48;20.53;;;6.43;;
55346;SDS011;41218;55.700;38.270;2023-01-31T20:36:50;14.18;;;6.50;;
55346;SDS011;41218;55.700;38.270;2023-01-31T20:41:50;21.20;;;7.83;;
55346;SDS011;41218;55.700;38.270;2023-01-31T20:46:51;17.03;;;6.87;;
55346;SDS011;41218;55.700;38.270;2023-01-31T20:51:52;17.52;;;6.95;;
55346;SDS011;41218;55.700;38.270;2023-01-31T20:56:52;18.93;;;6.70;;
55346;SDS011;41218;55.700;38.270;2023-01-31T21:01:53;22.13;;;7.57;;
55346;SDS011;41218;55.700;38.270;2023-01-31T21:06:53;20.63;;;6.47;;
55346;SDS011;41218;55.700;38.270;2023-01-31T21:11:54;16.43;;;6.67;;
55346;SDS011;41218;55.700;38.270;2023-01-31T21:16:54;17.10;;;6.60;;
55346;SDS011;41218;55.700;38.270;2023-01-31T21:21:55;18.33;;;6.63;;
55346;SDS011;41218;55.700;38.270;2023-01-31T21:26:55;19.43;;;6.77;;
55346;SDS011;41218;55.700;38.270;2023-01-31T21:31:56;17.83;;;6.70;;
55346;SDS011;41218;55.700;38.270;2023-01-31T21:36:56;17.87;;;7.13;;
55346;SDS011;41218;55.700;38.270;2023-01-31T21:41:57;22.40;;;6.53;;
55346;SDS011;41218;55.700;38.270;2023-01-31T21:47:18;18.27;;;6.73;;
55346;SDS011;41218;55.700;38.270;2023-01-31T21:52:18;20.63;;;7.53;;
55346;SDS011;41218;55.700;38.270;2023-01-31T21:57:18;17.73;;;6.97;;
55346;SDS011;41218;55.700;38.270;2023-01-31T22:02:19;17.50;;;6.53;;
55346;SDS011;41218;55.700;38.270;2023-01-31T22:07:19;17.20;;;6.77;;
55346;SDS011;41218;55.700;38.270;2023-01-31T22:12:20;19.30;;;6.87;;
55346;SDS011;41218;55.700;38.270;2023-01-31T22:17:20;30.00;;;8.53;;
55346;SDS011;41218;55.700;38.270;2023-01-31T22:22:21;22.37;;;8.03;;
55346;SDS011;41218;55.700;38.270;2023-01-31T22:27:22;24.07;;;7.77;;
55346;SDS011;41218;55.700;38.270;2023-01-31T22:32:22;23.33;;;7.33;;
55346;SDS011;41218;55.700;38.270;2023-01-31T22:37:23;23.13;;;7.20;;
55346;SDS011;41218;55.700;38.270;2023-01-31T22:42:23;21.17;;;7.87;;
55346;SDS011;41218;55.700;38.270;2023-01-31T22:47:24;22.13;;;7.70;;
55346;SDS011;41218;55.700;38.270;2023-01-31T22:52:24;21.67;;;8.50;;
55346;SDS011;41218;55.700;38.270;2023-01-31T22:57:25;21.90;;;8.20;;
55346;SDS011;41218;55.700;38.270;2023-01-31T23:07:26;20.07;;;7.63;;
55346;SDS011;41218;55.700;38.270;2023-01-31T23:12:28;21.23;;;7.40;;
55346;SDS011;41218;55.700;38.270;2023-01-31T23:17:28;25.03;;;8.37;;
55346;SDS011;41218;55.700;38.270;2023-01-31T23:22:38;21.08;;;7.65;;
55346;SDS011;41218;55.700;38.270;2023-01-31T23:27:39;19.47;;;7.50;;
55346;SDS011;41218;55.700;38.270;2023-01-31T23:32:41;20.85;;;7.72;;
55346;SDS011;41218;55.700;38.270;2023-01-31T23:37:42;23.43;;;7.50;;
55346;SDS011;41218;55.700;38.270;2023-01-31T23:42:42;17.77;;;7.40;;
55346;SDS011;41218;55.700;38.270;2023-01-31T23:47:43;24.33;;;9.07;;
55346;SDS011;41218;55.700;38.270;2023-01-31T23:52:43;22.70;;;7.70;;
55346;SDS011;41218;55.700;38.270;2023-01-31T23:57:44;25.77;;;8.40;;
